createdAt,value
2018-11-10T00:00:06.241Z,5.6
2018-11-10T00:03:06.336Z,5.4
2018-11-10T00:06:06.163Z,5.5
2018-11-10T00:09:06.245Z,5.1
2018-11-10T00:12:06.040Z,5.2
2018-11-10T00:15:06.342Z,5.2
2018-11-10T00:18:06.266Z,5.3
2018-11-10T00:21:06.112Z,5.3
2018-11-10T00:24:06.301Z,5.4
2018-11-10T00:27:06.287Z,5.4
2018-11-10T00:30:06.259Z,5.5
2018-11-10T00:33:06.219Z,5.4
2018-11-10T00:36:06.354Z,5.4
2018-11-10T00:39:06.123Z,5.5
2018-11-10T00:42:06.094Z,5.3
2018-11-10T00:45:06.294Z,5.3
2018-11-10T00:48:06.225Z,5.3
2018-11-10T00:51:06.181Z,5.4
2018-11-10T00:54:06.490Z,5.5
2018-11-10T00:57:06.264Z,5.2
2018-11-10T01:00:06.157Z,5.2
2018-11-10T01:03:06.228Z,5.2
2018-11-10T01:06:06.211Z,5.2
2018-11-10T01:09:05.992Z,5.1
2018-11-10T01:12:06.156Z,5.4
2018-11-10T01:15:06.370Z,5.6
2018-11-10T01:18:06.122Z,5.5
2018-11-10T01:21:06.300Z,5.3
2018-11-10T01:24:06.250Z,5.1
2018-11-10T01:27:06.165Z,5.3
2018-11-10T01:30:06.214Z,5.3
2018-11-10T01:33:06.468Z,5.4
2018-11-10T01:36:05.959Z,5.3
2018-11-10T01:39:06.119Z,5.6
2018-11-10T01:42:06.401Z,5.4
2018-11-10T01:45:06.417Z,5.2
2018-11-10T01:48:06.342Z,5.5
2018-11-10T01:51:06.099Z,5.5
2018-11-10T01:54:06.163Z,5.4
2018-11-10T01:57:06.017Z,5.4
2018-11-10T02:00:06.121Z,5.3
2018-11-10T02:03:06.442Z,5.6
2018-11-10T02:06:06.019Z,5.7
2018-11-10T02:09:06.049Z,5.9
2018-11-10T02:12:06.230Z,5.6
2018-11-10T02:15:06.108Z,5.6
2018-11-10T02:18:06.183Z,5.4
2018-11-10T02:21:06.296Z,5.4
2018-11-10T02:24:06.167Z,5.4
2018-11-10T02:27:06.186Z,5.5
2018-11-10T02:30:06.188Z,5.5
2018-11-10T02:33:06.180Z,5.6
2018-11-10T02:36:06.172Z,5.5
2018-11-10T02:39:06.375Z,5.5
2018-11-10T02:42:06.602Z,5.4
2018-11-10T02:45:06.345Z,5.5
2018-11-10T02:48:06.246Z,5.5
2018-11-10T02:51:06.486Z,5.5
2018-11-10T02:54:06.280Z,5.4
2018-11-10T02:57:06.365Z,5.6
2018-11-10T03:00:06.625Z,5.5
2018-11-10T03:03:06.379Z,5.5
2018-11-10T03:06:06.176Z,5.4
2018-11-10T03:09:06.123Z,5.6
2018-11-10T03:12:06.122Z,6
2018-11-10T03:15:06.082Z,5.7
2018-11-10T03:18:06.234Z,5.6
2018-11-10T03:21:06.188Z,5.8
2018-11-10T03:24:06.175Z,5.7
2018-11-10T03:27:06.146Z,5.8
2018-11-10T03:30:06.939Z,5.8
2018-11-10T03:33:06.095Z,6
2018-11-10T03:36:06.142Z,6
2018-11-10T03:39:06.292Z,6
2018-11-10T03:42:05.964Z,5.8
2018-11-10T03:45:06.180Z,5.6
2018-11-10T03:48:06.107Z,5.7
2018-11-10T03:51:06.317Z,5.7
2018-11-10T03:54:06.212Z,5.8
2018-11-10T03:57:06.069Z,5.9
2018-11-10T04:00:06.189Z,5.8
2018-11-10T04:03:06.139Z,5.9
2018-11-10T04:06:06.791Z,5.8
2018-11-10T04:09:06.333Z,5.7
2018-11-10T04:12:06.066Z,5.7
2018-11-10T04:15:06.372Z,5.5
2018-11-10T04:18:06.228Z,5.9
2018-11-10T04:21:06.556Z,5.8
2018-11-10T04:24:06.269Z,5.7
2018-11-10T04:27:06.195Z,5.7
2018-11-10T04:30:06.226Z,5.8
2018-11-10T04:33:05.930Z,5.7
2018-11-10T04:36:06.073Z,5.9
2018-11-10T04:39:06.434Z,5.9
2018-11-10T04:42:06.063Z,5.8
2018-11-10T04:45:06.126Z,5.6
2018-11-10T04:48:06.279Z,5.5
2018-11-10T04:51:05.971Z,5.6
2018-11-10T04:54:06.447Z,5.7
2018-11-10T04:57:06.119Z,5.5
2018-11-10T05:00:06.236Z,5.3
2018-11-10T05:03:05.985Z,5.4
2018-11-10T05:06:06.352Z,5.4
2018-11-10T05:09:06.040Z,5.3
2018-11-10T05:12:05.966Z,5.2
2018-11-10T05:15:06.077Z,5.1
2018-11-10T05:18:06.206Z,4.9
2018-11-10T05:21:06.250Z,5
2018-11-10T05:24:06.088Z,4.9
2018-11-10T05:27:06.171Z,4.9
2018-11-10T05:30:06.089Z,4.8
2018-11-10T05:33:06.269Z,4.8
2018-11-10T05:36:06.051Z,4.7
2018-11-10T05:39:06.203Z,4.7
2018-11-10T05:42:06.078Z,4.7
2018-11-10T05:45:06.184Z,4.6
2018-11-10T05:48:06.228Z,4.5
2018-11-10T05:51:05.960Z,4.5
2018-11-10T05:54:06.037Z,4.5
2018-11-10T05:57:07.657Z,4.5
2018-11-10T06:00:06.159Z,4.5
2018-11-10T06:03:07.574Z,4.4
2018-11-10T06:06:06.071Z,4.4
2018-11-10T06:09:07.292Z,4.5
2018-11-10T06:12:06.149Z,4.5
2018-11-10T06:15:05.974Z,4.5
2018-11-10T06:18:06.206Z,4.4
2018-11-10T06:21:06.053Z,4.3
2018-11-10T06:24:06.065Z,4.3
2018-11-10T06:27:06.037Z,4.2
2018-11-10T06:30:05.974Z,4.3
2018-11-10T06:33:06.238Z,4.3
2018-11-10T06:36:06.237Z,4.3
2018-11-10T06:39:06.054Z,4.2
2018-11-10T06:42:06.317Z,4
2018-11-10T06:45:06.020Z,4
2018-11-10T06:48:06.413Z,4
2018-11-10T06:51:06.014Z,4.1
2018-11-10T06:54:06.092Z,4
2018-11-10T06:57:06.349Z,4.1
2018-11-10T07:00:06.165Z,4.1
2018-11-10T07:03:06.110Z,4
2018-11-10T07:06:06.156Z,4.1
2018-11-10T07:09:05.951Z,4
2018-11-10T07:12:06.193Z,4.1
2018-11-10T07:15:05.964Z,4
2018-11-10T07:18:08.044Z,4.1
2018-11-10T07:21:06.191Z,4.1
2018-11-10T07:24:06.190Z,3.9
2018-11-10T07:27:05.840Z,3.9
2018-11-10T07:30:06.072Z,3.8
2018-11-10T07:33:05.986Z,4.3
2018-11-10T07:36:06.186Z,4.4
2018-11-10T07:39:05.982Z,4.4
2018-11-10T07:42:06.133Z,4.3
2018-11-10T07:45:06.410Z,4.2
2018-11-10T07:48:05.886Z,4.4
2018-11-10T07:51:06.344Z,4.7
2018-11-10T07:54:06.023Z,4.8
2018-11-10T07:57:05.877Z,4.3
2018-11-10T08:00:05.943Z,4
2018-11-10T08:03:06.079Z,4.5
2018-11-10T08:06:06.316Z,4.3
2018-11-10T08:09:06.080Z,4
2018-11-10T08:12:06.341Z,3.9
2018-11-10T08:15:06.023Z,3.8
2018-11-10T08:18:05.943Z,3.7
2018-11-10T08:21:06.166Z,4.1
2018-11-10T08:24:06.084Z,3.8
2018-11-10T08:27:05.994Z,3.9
2018-11-10T08:30:05.868Z,3.7
2018-11-10T08:33:06.275Z,3.7
2018-11-10T08:36:06.162Z,7
2018-11-10T08:39:06.859Z,8.7
2018-11-10T08:42:05.971Z,7.9
2018-11-10T08:45:06.003Z,6.5
2018-11-10T08:48:05.788Z,5.2
2018-11-10T08:51:06.202Z,5.3
2018-11-10T08:54:06.147Z,4.8
2018-11-10T08:57:05.916Z,4.6
2018-11-10T09:00:06.387Z,5
2018-11-10T09:03:05.987Z,5.3
2018-11-10T09:06:06.159Z,5.5
2018-11-10T09:09:05.968Z,4.9
2018-11-10T09:12:06.182Z,4.3
2018-11-10T09:15:08.076Z,4
2018-11-10T09:18:06.033Z,4.3
2018-11-10T09:21:07.995Z,4.3
2018-11-10T09:24:06.074Z,4.2
2018-11-10T09:27:05.912Z,4.2
2018-11-10T09:30:05.902Z,5.8
2018-11-10T09:33:05.834Z,5.1
2018-11-10T09:36:05.982Z,4.9
2018-11-10T09:39:05.940Z,4.3
2018-11-10T09:42:08.035Z,4.6
2018-11-10T09:48:48.379Z,5.7
2018-11-10T09:51:48.325Z,5.4
2018-11-10T09:54:48.290Z,4.7
2018-11-10T09:57:48.109Z,4.8
2018-11-10T10:00:48.296Z,5.3
2018-11-10T10:03:48.038Z,4.9
2018-11-10T10:06:48.100Z,4.6
2018-11-10T10:09:48.525Z,5
2018-11-10T10:12:48.116Z,4.3
2018-11-10T10:15:48.359Z,4.1
2018-11-10T10:18:48.304Z,4.1
2018-11-10T10:21:49.790Z,4
2018-11-10T10:24:48.315Z,3.9
2018-11-10T10:27:48.081Z,3.8
2018-11-10T10:30:48.141Z,3.7
2018-11-10T10:44:15.100Z,3.8
2018-11-10T10:50:46.047Z,4
2018-11-10T10:53:45.985Z,4.1
2018-11-10T10:56:46.482Z,4
2018-11-10T10:59:45.929Z,3.8
2018-11-10T11:02:46.669Z,3.8
2018-11-10T11:05:46.036Z,3.8
2018-11-10T11:08:46.651Z,4
2018-11-10T11:11:45.886Z,4.3
2018-11-10T11:14:46.463Z,4.9
2018-11-10T11:17:46.114Z,4.2
2018-11-10T11:20:46.640Z,4
2018-11-10T11:23:45.867Z,4.1
2018-11-10T11:26:46.050Z,4.3
2018-11-10T11:29:48.331Z,4.1
2018-11-10T11:32:46.427Z,5
2018-11-10T11:35:46.005Z,4.3
2018-11-10T11:38:45.869Z,4
2018-11-10T11:41:48.313Z,4
2018-11-10T11:44:45.921Z,3.8
2018-11-10T11:47:46.147Z,4.2
2018-11-10T11:50:46.247Z,4.9
2018-11-10T11:53:46.077Z,4.4
2018-11-10T11:56:45.784Z,4.2
2018-11-10T11:59:46.420Z,4.4
2018-11-10T12:02:46.136Z,4.2
2018-11-10T12:05:46.444Z,3.9
2018-11-10T12:08:46.092Z,3.8
2018-11-10T12:11:46.375Z,3.8
2018-11-10T12:14:46.136Z,3.6
2018-11-10T12:17:46.014Z,3.7
2018-11-10T12:20:48.163Z,3.5
2018-11-10T12:23:46.305Z,4.3
2018-11-10T12:26:47.217Z,3.9
2018-11-10T12:29:46.090Z,3.6
2018-11-10T12:32:46.001Z,3.4
2018-11-10T12:35:45.959Z,3.5
2018-11-10T12:38:47.103Z,3.4
2018-11-10T12:41:46.572Z,3.6
2018-11-10T12:44:45.923Z,3.6
2018-11-10T12:47:45.966Z,3.4
2018-11-10T12:50:46.001Z,3.3
2018-11-10T12:53:45.836Z,3.5
2018-11-10T12:56:46.063Z,3.3
2018-11-10T12:59:46.145Z,3.2
2018-11-10T13:02:46.095Z,3.2
2018-11-10T13:05:45.979Z,3.2
2018-11-10T13:08:46.260Z,3.2
2018-11-10T13:11:49.452Z,3.2
2018-11-10T13:14:46.183Z,3.1
2018-11-10T13:17:47.385Z,3.3
2018-11-10T13:20:46.717Z,3.3
2018-11-10T13:23:46.088Z,3.3
2018-11-10T13:26:45.962Z,4
2018-11-10T13:29:45.955Z,3.7
2018-11-10T13:32:45.975Z,3.6
2018-11-10T13:35:46.228Z,5.6
2018-11-10T13:38:47.123Z,4.6
2018-11-10T13:41:46.006Z,4
2018-11-10T13:44:46.059Z,4
2018-11-10T13:47:46.104Z,3.6
2018-11-10T13:50:49.688Z,3.6
2018-11-10T13:53:46.169Z,3.2
2018-11-10T13:56:46.081Z,3.1
2018-11-10T13:59:46.025Z,3.1
2018-11-10T14:02:45.839Z,3.1
2018-11-10T14:05:45.914Z,3
2018-11-10T14:08:45.923Z,3.2
2018-11-10T14:11:45.825Z,3.2
2018-11-10T14:14:45.917Z,3.1
2018-11-10T14:17:46.339Z,3.3
2018-11-10T14:20:48.403Z,3.5
2018-11-10T14:23:45.772Z,3.7
2018-11-10T14:26:46.104Z,3.3
2018-11-10T14:29:46.205Z,3.2
2018-11-10T14:32:45.808Z,3.1
2018-11-10T14:35:45.962Z,3.1
2018-11-10T14:38:46.067Z,3
2018-11-10T14:41:46.096Z,3.1
2018-11-10T14:44:45.857Z,3.1
2018-11-10T14:47:45.983Z,3
2018-11-10T14:50:45.921Z,3.1
2018-11-10T14:53:45.899Z,3.6
2018-11-10T14:56:46.081Z,3.8
2018-11-10T14:59:46.027Z,4.1
2018-11-10T15:02:46.053Z,3.7
2018-11-10T15:05:47.908Z,3.8
2018-11-10T15:08:45.946Z,3.6
2018-11-10T15:11:48.661Z,3.5
2018-11-10T15:14:46.404Z,4.1
2018-11-10T15:17:49.551Z,5.2
2018-11-10T15:20:45.932Z,5.4
2018-11-10T15:23:45.958Z,4.8
2018-11-10T15:26:45.791Z,4.2
2018-11-10T15:29:45.747Z,4
2018-11-10T15:32:46.082Z,3.5
2018-11-10T15:35:45.832Z,3.6
2018-11-10T15:38:45.886Z,3.5
2018-11-10T15:41:46.063Z,3.7
2018-11-10T15:44:45.733Z,3.4
2018-11-10T15:47:45.753Z,3.4
2018-11-10T15:50:45.979Z,3.3
2018-11-10T15:53:45.874Z,3.6
2018-11-10T15:56:46.106Z,3.4
2018-11-10T15:59:46.095Z,3
2018-11-10T16:02:45.934Z,3.1
2018-11-10T16:05:45.813Z,3.8
2018-11-10T16:08:45.976Z,3.5
2018-11-10T16:11:45.888Z,3.3
2018-11-10T16:14:46.051Z,3.1
2018-11-10T16:17:46.012Z,3.1
2018-11-10T16:20:47.365Z,3.1
2018-11-10T16:23:45.723Z,3.4
2018-11-10T16:26:46.307Z,3.1
2018-11-10T16:29:45.949Z,3.2
2018-11-10T16:32:45.874Z,3.1
2018-11-10T16:35:45.889Z,3
2018-11-10T16:38:46.157Z,3
2018-11-10T16:41:45.848Z,3.1
2018-11-10T16:44:47.319Z,2.9
2018-11-10T16:47:46.036Z,3
2018-11-10T16:50:45.919Z,2.9
2018-11-10T16:53:46.251Z,2.9
2018-11-10T16:56:45.928Z,3.2
2018-11-10T16:59:45.854Z,3.5
2018-11-10T17:02:45.829Z,3.2
2018-11-10T17:05:45.949Z,3.1
2018-11-10T17:08:47.536Z,2.9
2018-11-10T17:11:46.033Z,2.9
2018-11-10T17:14:45.903Z,3
2018-11-10T17:17:45.811Z,3
2018-11-10T17:20:46.653Z,3.2
2018-11-10T17:23:45.731Z,3.1
2018-11-10T17:26:45.976Z,2.9
2018-11-10T17:29:45.949Z,2.9
2018-11-10T17:32:46.198Z,3
2018-11-10T17:35:46.199Z,3
2018-11-10T17:38:46.810Z,2.9
2018-11-10T17:41:46.066Z,2.9
2018-11-10T17:44:45.764Z,3.3
2018-11-10T17:47:46.344Z,3
2018-11-10T17:50:45.852Z,2.9
2018-11-10T17:53:46.060Z,2.9
2018-11-10T17:56:46.038Z,2.9
2018-11-10T17:59:46.252Z,2.9
2018-11-10T18:02:45.982Z,2.8
2018-11-10T18:05:45.704Z,2.8
2018-11-10T18:08:45.787Z,3.1
2018-11-10T18:11:45.827Z,3
2018-11-10T18:14:45.774Z,2.8
2018-11-10T18:17:45.813Z,2.8
2018-11-10T18:20:45.924Z,2.8
2018-11-10T18:23:45.720Z,2.9
2018-11-10T18:26:45.813Z,2.8
2018-11-10T18:29:46.798Z,2.7
2018-11-10T18:32:48.368Z,2.8
2018-11-10T18:35:46.022Z,2.8
2018-11-10T18:38:45.848Z,2.8
2018-11-10T18:41:46.279Z,3
2018-11-10T18:44:45.812Z,2.9
2018-11-10T18:47:45.936Z,3
2018-11-10T18:50:45.919Z,2.9
2018-11-10T18:53:45.747Z,2.8
2018-11-10T18:56:46.060Z,2.9
2018-11-10T18:59:46.022Z,2.9
2018-11-10T19:02:46.149Z,2.8
2018-11-10T19:05:46.301Z,3
2018-11-10T19:08:46.136Z,3
2018-11-10T19:11:45.881Z,2.9
2018-11-10T19:14:45.854Z,2.9
2018-11-10T19:17:46.304Z,2.8
2018-11-10T19:20:45.817Z,2.8
2018-11-10T19:23:45.749Z,2.7
2018-11-10T19:26:45.830Z,2.8
2018-11-10T19:29:45.754Z,2.8
2018-11-10T19:32:45.962Z,2.8
2018-11-10T19:35:46.002Z,2.8
2018-11-10T19:38:45.696Z,2.8
2018-11-10T19:41:45.961Z,2.8
2018-11-10T19:44:45.705Z,2.8
2018-11-10T19:47:45.923Z,2.7
2018-11-10T19:50:48.262Z,2.8
2018-11-10T19:53:45.875Z,2.9
2018-11-10T19:56:45.730Z,2.7
2018-11-10T19:59:45.718Z,3
2018-11-10T20:02:45.839Z,2.9
2018-11-10T20:05:45.839Z,2.9
2018-11-10T20:08:46.005Z,2.8
2018-11-10T20:11:46.315Z,2.9
2018-11-10T20:14:45.781Z,2.9
2018-11-10T20:17:45.847Z,2.8
2018-11-10T20:20:45.955Z,2.8
2018-11-10T20:23:45.775Z,2.9
2018-11-10T20:26:45.753Z,2.9
2018-11-10T20:29:45.883Z,2.8
2018-11-10T20:32:47.809Z,2.8
2018-11-10T20:35:46.045Z,2.8
2018-11-10T20:38:46.943Z,2.9
2018-11-10T20:41:46.016Z,2.9
2018-11-10T20:44:46.755Z,2.9
2018-11-10T20:47:45.956Z,2.8
2018-11-10T20:50:45.982Z,2.8
2018-11-10T20:53:45.911Z,3
2018-11-10T20:56:45.786Z,2.8
2018-11-10T20:59:45.739Z,2.8
2018-11-10T21:02:46.051Z,2.9
2018-11-10T21:05:47.044Z,2.8
2018-11-10T21:08:46.082Z,2.8
2018-11-10T21:11:45.651Z,2.8
2018-11-10T21:14:45.696Z,2.8
2018-11-10T21:17:45.870Z,2.8
2018-11-10T21:20:45.756Z,2.9
2018-11-10T21:23:45.764Z,2.9
2018-11-10T21:26:46.340Z,2.9
2018-11-10T21:29:48.467Z,2.9
2018-11-10T21:32:45.896Z,2.9
2018-11-10T21:35:46.089Z,2.9
2018-11-10T21:38:45.841Z,2.8
2018-11-10T21:41:45.775Z,2.8
2018-11-10T21:44:45.949Z,2.8
2018-11-10T21:47:45.886Z,2.8
2018-11-10T21:50:45.933Z,2.8
2018-11-10T21:53:45.750Z,2.8
2018-11-10T21:56:45.702Z,2.7
2018-11-10T21:59:46.328Z,2.9
2018-11-10T22:02:47.083Z,2.9
2018-11-10T22:05:45.859Z,2.8
2018-11-10T22:08:47.514Z,2.8
2018-11-10T22:11:46.018Z,2.8
2018-11-10T22:14:45.700Z,2.9
2018-11-10T22:17:45.836Z,2.8
2018-11-10T22:20:46.325Z,2.9
2018-11-10T22:23:45.659Z,2.9
2018-11-10T22:26:45.591Z,2.9
2018-11-10T22:29:46.125Z,2.8
2018-11-10T22:32:45.936Z,2.8
2018-11-10T22:35:45.693Z,2.9
2018-11-10T22:38:45.682Z,2.8
2018-11-10T22:41:45.736Z,3.2
2018-11-10T22:44:46.085Z,3.2
2018-11-10T22:47:46.144Z,3.1
2018-11-10T22:50:45.918Z,3.4
2018-11-10T22:53:45.584Z,3.2
2018-11-10T22:56:46.599Z,3.2
2018-11-10T22:59:45.804Z,3.1
2018-11-10T23:02:46.091Z,3.2
2018-11-10T23:05:45.828Z,3.5
2018-11-10T23:08:46.064Z,3.2
2018-11-10T23:11:46.029Z,2.9
2018-11-10T23:14:45.812Z,3
2018-11-10T23:17:45.747Z,2.9
2018-11-10T23:20:45.760Z,2.9
2018-11-10T23:23:45.784Z,3.3
2018-11-10T23:26:46.064Z,3.1
2018-11-10T23:29:45.786Z,3.1
2018-11-10T23:32:45.798Z,3
2018-11-10T23:35:45.706Z,3
2018-11-10T23:38:45.846Z,3.1
2018-11-10T23:41:45.689Z,2.9
2018-11-10T23:44:46.212Z,2.9
2018-11-10T23:47:46.130Z,2.8
2018-11-10T23:50:46.227Z,2.8
2018-11-10T23:53:46.061Z,2.8
2018-11-10T23:56:45.621Z,2.8
2018-11-10T23:59:45.913Z,2.7
